Time;durP1;ratioP1;P1;durP2;ratioP2;P2;SDS_P1;SDS_P2;PMS_P1;PMS_P2;Temp;Humidity;BMP_temperature;BMP_pressure;BME280_temperature;BME280_humidity;BME280_pressure;Samples;Min_cycle;Max_cycle;Signal;HPM_P1;HPM_P2
2023/09/23 00:02:22;;;;;;;9.50;8.00;;;;;;;21.01;52.46;100728.94;108102;1279;21987;-68
2023/09/23 00:04:48;;;;;;;11.10;8.30;;;;;;;20.99;52.46;100725.09;108181;1286;22740;-57
2023/09/23 00:07:13;;;;;;;13.10;8.70;;;;;;;20.98;52.48;100719.59;108086;1279;21982;-57
2023/09/23 00:09:39;;;;;;;12.70;9.50;;;;;;;20.98;52.44;100719.98;108123;1283;21987;-68
2023/09/23 00:12:06;;;;;;;12.20;9.30;;;;;;;20.94;52.46;100717.33;108088;1288;21990;-58
2023/09/23 00:14:32;;;;;;;12.70;10.40;;;;;;;20.91;52.60;100715.66;108115;1287;22460;-58
2023/09/23 00:16:58;;;;;;;12.90;9.30;;;;;;;20.91;52.82;100721.55;108123;1287;22018;-58
2023/09/23 00:19:24;;;;;;;10.70;8.60;;;;;;;20.93;53.07;100723.80;108093;1288;22002;-58
2023/09/23 00:21:51;;;;;;;15.20;10.10;;;;;;;20.95;53.33;100722.96;108112;1286;22106;-58
2023/09/23 00:24:17;;;;;;;13.40;9.70;;;;;;;20.97;53.42;100723.93;108186;1277;21993;-58
2023/09/23 00:26:43;;;;;;;11.10;8.70;;;;;;;20.99;53.31;100730.09;108130;1283;21981;-60
2023/09/23 00:29:11;;;;;;;13.10;8.60;;;;;;;21.00;53.46;100734.86;108157;1288;21991;-69
2023/09/23 00:31:36;;;;;;;9.90;8.60;;;;;;;21.00;53.45;100735.40;108165;1276;22345;-59
2023/09/23 00:34:02;;;;;;;11.30;8.10;;;;;;;21.01;53.55;100741.23;108095;1283;22000;-69
2023/09/23 00:36:28;;;;;;;10.90;8.10;;;;;;;21.01;53.52;100741.38;108105;1280;22008;-69
2023/09/23 00:38:55;;;;;;;13.40;8.50;;;;;;;21.03;53.60;100740.38;107896;1287;23728;-70
2023/09/23 00:41:21;;;;;;;9.50;7.70;;;;;;;21.05;53.67;100738.33;108105;1286;22008;-69
2023/09/23 00:43:48;;;;;;;11.90;8.50;;;;;;;21.07;53.74;100740.02;108147;1280;22485;-70
2023/09/23 00:46:20;;;;;;;15.00;8.00;;;;;;;21.09;53.72;100738.14;108102;1279;21990;-59
2023/09/23 00:48:46;;;;;;;10.90;7.80;;;;;;;21.13;53.87;100735.83;107865;1279;22464;-69
2023/09/23 00:51:12;;;;;;;9.20;8.00;;;;;;;21.17;53.88;100735.97;107891;1284;23612;-69
2023/09/23 00:53:39;;;;;;;12.10;8.50;;;;;;;21.20;53.67;100738.84;108162;1277;22032;-69
2023/09/23 00:56:05;;;;;;;11.30;8.70;;;;;;;21.17;53.34;100743.66;108106;1287;21983;-69
2023/09/23 00:58:31;;;;;;;13.90;9.50;;;;;;;21.13;53.67;100748.27;107818;1287;22000;-58
2023/09/23 01:00:58;;;;;;;10.70;8.60;;;;;;;21.15;53.82;100751.04;108088;1283;22025;-58
2023/09/23 01:03:23;;;;;;;10.60;8.50;;;;;;;21.19;54.06;100749.94;108041;1288;23473;-68
2023/09/23 01:06:19;;;;;;;12.10;8.60;;;;;;;21.23;54.19;100751.50;107994;1286;21999;-60
2023/09/23 01:08:49;;;;;;;12.80;8.50;;;;;;;21.28;54.20;100752.02;107861;1286;22225;-69
2023/09/23 01:11:17;;;;;;;10.10;8.20;;;;;;;21.31;54.28;100750.96;108000;1283;21992;-70
2023/09/23 01:13:44;;;;;;;11.20;8.20;;;;;;;21.31;54.20;100747.02;107893;1283;21990;-69
2023/09/23 01:16:12;;;;;;;13.60;8.00;;;;;;;21.30;54.00;100747.77;108031;1276;22748;-59
2023/09/23 01:18:39;;;;;;;12.60;7.70;;;;;;;21.30;54.09;100746.70;108013;1288;21993;-59
2023/09/23 01:21:07;;;;;;;13.00;7.80;;;;;;;21.30;54.00;100745.27;108048;1288;21991;-57
2023/09/23 01:23:36;;;;;;;11.30;8.00;;;;;;;21.29;53.99;100742.67;108043;1288;21993;-57
2023/09/23 01:26:02;;;;;;;15.40;8.10;;;;;;;21.27;54.09;100740.80;108023;1288;22227;-68
2023/09/23 01:28:28;;;;;;;10.60;8.50;;;;;;;21.25;54.13;100743.58;107839;1279;21995;-68
2023/09/23 01:30:54;;;;;;;9.00;8.10;;;;;;;21.23;54.23;100744.20;108004;1276;21989;-68
2023/09/23 01:33:19;;;;;;;9.30;8.00;;;;;;;21.21;54.04;100744.69;108033;1280;21989;-69
2023/09/23 01:35:45;;;;;;;11.90;8.30;;;;;;;21.19;53.95;100744.95;107999;1286;21985;-69
2023/09/23 01:38:11;;;;;;;13.50;8.20;;;;;;;21.16;53.93;100744.96;108018;1288;22048;-69
2023/09/23 01:40:39;;;;;;;10.50;7.80;;;;;;;21.11;54.04;100741.95;107992;1288;21977;-58
2023/09/23 01:43:10;;;;;;;10.50;8.50;;;;;;;21.09;54.14;100740.45;108035;1288;22198;-58
2023/09/23 01:45:36;;;;;;;10.80;8.10;;;;;;;21.10;54.49;100741.30;108014;1288;21984;-57
2023/09/23 01:48:03;;;;;;;13.00;8.50;;;;;;;21.12;54.91;100745.30;107991;1283;22012;-63
2023/09/23 01:50:29;;;;;;;11.00;8.70;;;;;;;21.16;55.01;100748.52;108005;1283;22078;-69
2023/09/23 01:52:59;;;;;;;10.80;8.80;;;;;;;21.19;55.35;100748.36;108018;1283;21993;-58
2023/09/23 01:55:25;;;;;;;17.00;9.10;;;;;;;21.22;55.33;100749.23;107981;1283;21999;-69
2023/09/23 01:57:50;;;;;;;12.30;8.70;;;;;;;21.26;55.16;100745.30;108005;1286;21995;-58
2023/09/23 02:00:25;;;;;;;11.60;8.50;;;;;;;21.28;55.06;100747.16;107965;1288;21986;-69
2023/09/23 02:02:54;;;;;;;11.50;7.80;;;;;;;21.27;54.88;100752.58;107986;1288;21989;-58
2023/09/23 02:05:21;;;;;;;13.50;9.10;;;;;;;21.25;54.89;100751.95;108045;1283;23746;-69
2023/09/23 02:07:50;;;;;;;13.00;9.30;;;;;;;21.24;54.90;100747.02;107995;1283;22035;-68
2023/09/23 02:10:18;;;;;;;10.90;8.90;;;;;;;21.22;55.17;100744.05;108004;1279;21991;-68
2023/09/23 02:12:44;;;;;;;12.10;9.00;;;;;;;21.21;55.14;100743.92;108095;1286;22006;-67
2023/09/23 02:15:15;;;;;;;11.60;8.90;;;;;;;21.21;55.12;100745.56;108080;1280;22175;-69
2023/09/23 02:17:47;;;;;;;11.40;9.00;;;;;;;21.19;55.20;100749.22;108051;1288;22001;-69
2023/09/23 02:20:22;;;;;;;13.30;8.70;;;;;;;21.18;55.32;100755.17;108097;1286;21992;-69
2023/09/23 02:22:49;;;;;;;16.10;10.20;;;;;;;21.17;55.47;100758.95;108126;1283;21999;-69
2023/09/23 02:25:16;;;;;;;11.70;9.00;;;;;;;21.17;55.45;100763.27;108085;1283;21991;-58
2023/09/23 02:27:44;;;;;;;10.30;8.60;;;;;;;21.14;55.30;100766.11;108125;1277;21990;-69
2023/09/23 02:30:10;;;;;;;11.20;9.30;;;;;;;21.07;55.46;100765.88;108109;1283;21993;-69
2023/09/23 02:32:42;;;;;;;13.00;8.90;;;;;;;21.03;55.57;100768.20;108148;1287;24386;-59
2023/09/23 02:35:11;;;;;;;10.90;8.40;;;;;;;20.99;55.63;100769.32;108047;1286;21999;-58
2023/09/23 02:37:40;;;;;;;15.30;8.50;;;;;;;20.96;55.72;100774.30;108129;1286;21997;-58
2023/09/23 02:40:11;;;;;;;11.70;8.80;;;;;;;20.95;55.84;100780.05;108068;1286;21999;-69
2023/09/23 02:42:41;;;;;;;12.60;8.00;;;;;;;20.95;55.91;100780.55;108136;1288;22031;-58
2023/09/23 02:45:12;;;;;;;16.60;8.60;;;;;;;20.95;55.87;100780.22;108112;1288;22013;-68
2023/09/23 02:47:38;;;;;;;15.60;7.60;;;;;;;20.96;55.95;100783.75;108161;1281;22760;-69
2023/09/23 02:50:09;;;;;;;12.30;8.30;;;;;;;20.98;55.94;100785.24;108143;1283;21969;-58
2023/09/23 02:52:36;;;;;;;10.60;7.50;;;;;;;20.99;56.03;100783.75;108151;1286;21994;-69
2023/09/23 02:55:03;;;;;;;9.70;7.40;;;;;;;21.01;55.93;100784.00;108174;1286;22051;-58
2023/09/23 02:57:30;;;;;;;9.40;7.70;;;;;;;21.03;56.00;100783.38;108158;1286;21990;-66
2023/09/23 02:59:57;;;;;;;17.90;8.00;;;;;;;21.05;56.21;100777.76;107827;1285;22094;-69
2023/09/23 03:02:27;;;;;;;11.40;7.30;;;;;;;21.12;56.28;100778.50;107686;1288;22029;-69
2023/09/23 03:04:58;;;;;;;11.40;8.30;;;;;;;21.16;56.10;100783.30;108136;1280;21997;-58
2023/09/23 03:07:32;;;;;;;11.30;7.90;;;;;;;21.17;56.18;100785.73;108148;1275;22000;-58
2023/09/23 03:10:01;;;;;;;12.50;7.80;;;;;;;21.18;56.30;100781.75;108173;1287;22033;-69
2023/09/23 03:12:40;;;;;;;10.90;7.70;;;;;;;21.19;56.50;100779.36;108125;1277;22023;-60
2023/09/23 03:15:14;;;;;;;9.50;7.50;;;;;;;21.22;56.74;100776.75;108116;1283;21989;-59
2023/09/23 03:17:50;;;;;;;10.30;7.70;;;;;;;21.24;56.89;100775.91;108120;1283;21992;-58
2023/09/23 03:20:21;;;;;;;12.10;7.80;;;;;;;21.28;57.10;100778.58;108147;1283;22044;-58
2023/09/23 03:22:50;;;;;;;10.70;8.00;;;;;;;21.32;57.40;100781.96;108160;1287;22002;-69
2023/09/23 03:25:20;;;;;;;15.70;8.30;;;;;;;21.35;57.49;100782.30;108104;1287;21994;-58
2023/09/23 03:27:50;;;;;;;10.70;7.80;;;;;;;21.39;57.74;100782.83;108190;1280;21990;-57
2023/09/23 03:30:17;;;;;;;12.80;8.50;;;;;;;21.44;58.05;100782.76;107910;1287;23674;-58
2023/09/23 03:32:44;;;;;;;12.50;8.80;;;;;;;21.49;58.32;100780.00;108176;1288;21993;-59
2023/09/23 03:35:16;;;;;;;12.20;8.30;;;;;;;21.55;58.50;100774.91;108104;1280;21988;-58
2023/09/23 03:37:43;;;;;;;14.10;9.10;;;;;;;21.61;58.61;100771.38;108107;1287;21998;-68
2023/09/23 03:40:09;;;;;;;15.00;9.00;;;;;;;21.66;58.59;100772.58;108123;1280;21992;-70
2023/09/23 03:42:35;;;;;;;11.50;8.50;;;;;;;21.69;58.67;100777.73;108125;1277;22085;-58
2023/09/23 03:45:03;;;;;;;12.40;8.40;;;;;;;21.73;58.61;100783.83;108116;1287;22000;-58
2023/09/23 03:47:29;;;;;;;10.20;8.10;;;;;;;21.75;58.49;100782.80;108132;1283;21988;-57
2023/09/23 03:49:56;;;;;;;12.30;8.80;;;;;;;21.78;58.70;100780.52;108117;1283;21990;-69
2023/09/23 03:52:23;;;;;;;11.90;8.40;;;;;;;21.80;58.85;100777.00;108120;1286;21999;-70
2023/09/23 03:54:49;;;;;;;14.80;9.70;;;;;;;21.82;58.90;100776.36;108131;1283;22151;-70
2023/09/23 03:57:15;;;;;;;12.90;9.50;;;;;;;21.84;59.11;100773.59;108188;1283;21987;-70
2023/09/23 03:59:41;;;;;;;14.30;9.60;;;;;;;21.86;58.91;100768.51;108179;1283;21998;-59
2023/09/23 04:02:07;;;;;;;15.00;9.20;;;;;;;21.88;59.13;100773.03;108133;1283;22457;-69
2023/09/23 04:04:37;;;;;;;15.30;9.60;;;;;;;21.90;59.15;100778.98;108134;1283;21989;-59
2023/09/23 04:07:05;;;;;;;20.40;10.20;;;;;;;21.93;59.32;100783.64;108125;1287;21995;-60
2023/09/23 04:09:32;;;;;;;17.20;10.10;;;;;;;21.99;59.72;100787.41;108168;1280;22064;-60
2023/09/23 04:11:58;;;;;;;14.70;9.40;;;;;;;22.07;59.74;100789.52;108091;1280;21990;-72
2023/09/23 04:14:26;;;;;;;20.60;9.60;;;;;;;22.13;59.60;100792.23;108101;1277;22106;-58
2023/09/23 04:16:53;;;;;;;16.80;10.00;;;;;;;22.19;59.61;100796.75;108215;1287;21991;-58
2023/09/23 04:19:19;;;;;;;18.30;10.20;;;;;;;22.24;59.54;100799.87;108187;1283;22040;-65
2023/09/23 04:21:44;;;;;;;17.40;9.60;;;;;;;22.28;59.42;100798.75;108115;1283;22001;-69
2023/09/23 04:24:10;;;;;;;20.80;10.30;;;;;;;22.33;59.34;100797.75;108127;1283;21998;-69
2023/09/23 04:26:35;;;;;;;29.80;12.40;;;;;;;22.37;59.42;100796.65;108156;1287;22003;-70
2023/09/23 04:29:01;;;;;;;18.50;10.30;;;;;;;22.40;59.48;100796.48;108150;1288;21991;-71
2023/09/23 04:31:28;;;;;;;20.10;11.30;;;;;;;22.42;59.44;100797.81;108193;1283;21990;-70
2023/09/23 04:33:53;;;;;;;19.40;10.20;;;;;;;22.47;59.61;100797.56;108183;1280;22001;-58
2023/09/23 04:36:21;;;;;;;15.80;11.30;;;;;;;22.53;59.74;100799.73;108079;1288;21990;-59
2023/09/23 04:38:48;;;;;;;17.90;10.40;;;;;;;22.57;60.02;100801.27;108120;1288;23039;-59
2023/09/23 04:41:13;;;;;;;18.70;11.00;;;;;;;22.63;60.04;100805.41;108171;1287;22001;-71
2023/09/23 04:43:40;;;;;;;20.10;10.70;;;;;;;22.71;60.22;100806.27;108121;1288;21992;-58
2023/09/23 04:46:06;;;;;;;22.00;11.40;;;;;;;22.80;60.75;100808.79;108118;1282;22027;-73
2023/09/23 04:48:32;;;;;;;21.70;11.90;;;;;;;22.88;61.01;100811.00;108172;1280;22004;-58
2023/09/23 04:50:58;;;;;;;11.30;9.20;;;;;;;22.94;61.29;100811.38;108097;1288;21992;-70
2023/09/23 04:53:23;;;;;;;20.10;10.50;;;;;;;23.02;61.59;100810.59;108121;1288;21985;-58
2023/09/23 04:55:49;;;;;;;15.60;10.50;;;;;;;23.11;61.74;100812.39;108138;1283;21997;-58
2023/09/23 04:58:15;;;;;;;19.10;11.10;;;;;;;23.19;61.84;100812.99;108218;1287;22009;-58
2023/09/23 05:00:40;;;;;;;19.40;10.70;;;;;;;23.28;62.09;100812.70;108111;1286;21987;-71
2023/09/23 05:03:08;;;;;;;16.80;10.70;;;;;;;23.38;62.19;100810.50;108122;1280;22378;-58
2023/09/23 05:05:34;;;;;;;19.90;9.90;;;;;;;23.47;62.36;100808.48;108156;1284;21995;-58
2023/09/23 05:08:02;;;;;;;14.10;10.30;;;;;;;23.57;62.38;100811.50;108156;1277;21990;-69
2023/09/23 05:10:28;;;;;;;17.50;10.80;;;;;;;23.68;62.72;100815.36;108125;1287;22014;-58
2023/09/23 05:12:54;;;;;;;15.40;11.00;;;;;;;23.77;63.26;100821.61;108123;1288;22002;-58
2023/09/23 05:15:19;;;;;;;14.20;10.90;;;;;;;23.87;63.52;100822.95;108117;1288;22458;-68
2023/09/23 05:17:45;;;;;;;16.60;11.30;;;;;;;23.98;63.73;100821.60;108169;1288;22001;-69
2023/09/23 05:20:21;;;;;;;18.00;10.50;;;;;;;24.10;64.19;100823.89;108077;1286;21993;-69
2023/09/23 05:22:48;;;;;;;15.40;10.30;;;;;;;24.23;64.49;100825.27;108129;1283;21994;-68
2023/09/23 05:25:14;;;;;;;14.40;11.00;;;;;;;24.37;64.72;100824.55;108156;1283;22043;-58
2023/09/23 05:27:40;;;;;;;16.10;11.10;;;;;;;24.48;64.78;100820.13;108132;1283;21990;-68
2023/09/23 05:30:10;;;;;;;15.50;10.30;;;;;;;24.58;64.93;100818.94;108130;1283;21987;-68
2023/09/23 05:32:38;;;;;;;12.30;9.70;;;;;;;24.70;65.14;100822.29;108168;1286;23053;-64
2023/09/23 05:35:10;;;;;;;13.90;9.90;;;;;;;24.82;65.18;100818.69;108137;1277;21990;-60
2023/09/23 05:37:39;;;;;;;15.30;9.30;;;;;;;24.97;65.50;100818.59;108190;1286;22030;-62
2023/09/23 05:40:10;;;;;;;13.80;8.90;;;;;;;25.12;65.64;100818.33;108081;1282;21999;-69
2023/09/23 05:42:36;;;;;;;12.80;9.00;;;;;;;25.26;65.51;100822.10;108136;1281;22759;-68
2023/09/23 05:45:03;;;;;;;14.10;9.00;;;;;;;25.37;65.28;100820.45;108157;1282;22467;-63
2023/09/23 05:47:30;;;;;;;11.10;8.80;;;;;;;25.52;65.26;100821.27;108151;1283;21989;-69
2023/09/23 05:49:56;;;;;;;12.40;7.20;;;;;;;25.64;65.20;100820.22;108139;1280;21996;-67
2023/09/23 05:52:21;;;;;;;10.40;7.70;;;;;;;25.76;65.17;100818.17;108138;1286;22297;-67
2023/09/23 05:54:48;;;;;;;8.90;7.20;;;;;;;25.87;64.96;100819.73;108092;1288;22002;-58
2023/09/23 05:57:13;;;;;;;9.40;6.90;;;;;;;26.03;65.16;100822.26;108150;1283;21989;-67
2023/09/23 05:59:39;;;;;;;13.40;7.00;;;;;;;26.23;64.99;100828.59;108106;1280;22013;-59
2023/09/23 06:02:08;;;;;;;10.80;6.60;;;;;;;26.38;64.83;100830.21;108122;1279;21993;-59
2023/09/23 06:04:35;;;;;;;11.50;6.40;;;;;;;26.52;64.93;100828.84;108165;1280;21998;-68
2023/09/23 06:07:00;;;;;;;10.10;6.10;;;;;;;26.65;64.79;100830.98;108099;1283;22011;-59
2023/09/23 06:09:26;;;;;;;10.70;5.40;;;;;;;26.81;64.85;100834.16;108115;1283;21990;-67
2023/09/23 06:11:52;;;;;;;9.30;5.90;;;;;;;26.98;64.54;100835.99;108099;1283;21992;-69
2023/09/23 06:14:18;;;;;;;9.50;5.50;;;;;;;27.15;64.05;100841.91;108176;1282;21989;-68
2023/09/23 06:16:44;;;;;;;7.80;5.00;;;;;;;27.27;63.85;100843.71;108144;1288;21987;-68
2023/09/23 06:19:09;;;;;;;6.00;4.30;;;;;;;27.45;63.88;100844.00;108165;1283;22007;-60
2023/09/23 06:21:35;;;;;;;5.90;3.70;;;;;;;27.69;63.68;100843.14;108124;1277;22000;-59
2023/09/23 06:24:01;;;;;;;4.70;3.20;;;;;;;27.84;62.82;100850.92;108112;1288;21997;-69
2023/09/23 06:26:26;;;;;;;3.40;2.60;;;;;;;28.03;61.94;100851.86;108140;1280;23649;-68
2023/09/23 06:28:52;;;;;;;4.80;2.90;;;;;;;28.13;61.08;100853.80;108133;1277;21994;-68
2023/09/23 06:31:17;;;;;;;5.30;2.80;;;;;;;28.20;60.80;100856.52;108114;1286;21995;-68
2023/09/23 06:33:43;;;;;;;5.00;2.80;;;;;;;28.24;60.27;100856.55;108089;1281;21999;-59
2023/09/23 06:36:08;;;;;;;5.70;2.40;;;;;;;28.26;59.84;100853.83;108120;1281;22024;-68
2023/09/23 06:38:34;;;;;;;8.40;3.00;;;;;;;28.33;59.86;100854.86;108133;1288;21996;-66
2023/09/23 06:41:00;;;;;;;5.10;2.40;;;;;;;28.45;59.71;100853.56;108129;1276;22064;-59
2023/09/23 06:43:25;;;;;;;6.10;3.00;;;;;;;28.59;59.32;100854.43;108118;1287;21994;-68
2023/09/23 06:45:58;;;;;;;5.20;2.80;;;;;;;28.76;59.10;100852.59;108143;1283;21994;-68
2023/09/23 06:48:23;;;;;;;3.10;2.40;;;;;;;28.99;58.59;100855.41;108161;1283;21991;-67
2023/09/23 06:51:08;;;;;;;5.20;2.30;;;;;;;29.20;57.89;100855.08;108101;1283;22036;-60
2023/09/23 06:53:34;;;;;;;3.00;2.10;;;;;;;29.39;57.01;100855.49;108144;1287;21995;-70
2023/09/23 06:55:59;;;;;;;4.50;2.50;;;;;;;29.52;56.36;100857.91;108119;1283;21995;-59
2023/09/23 06:58:25;;;;;;;4.10;2.10;;;;;;;29.60;55.72;100860.12;108132;1288;21996;-59
2023/09/23 07:00:51;;;;;;;5.50;2.70;;;;;;;29.66;55.13;100860.66;108085;1288;21997;-69
2023/09/23 07:03:17;;;;;;;6.80;2.30;;;;;;;29.73;55.23;100862.39;107820;1288;23304;-60
2023/09/23 07:05:42;;;;;;;6.90;2.40;;;;;;;29.87;54.96;100859.73;108100;1288;21999;-67
2023/09/23 07:08:08;;;;;;;4.40;2.40;;;;;;;30.06;54.30;100856.89;108174;1280;23715;-59
2023/09/23 07:10:35;;;;;;;3.80;2.40;;;;;;;30.23;54.00;100854.90;108148;1281;21993;-68
2023/09/23 07:13:03;;;;;;;4.40;2.40;;;;;;;30.35;52.74;100858.85;108153;1288;22012;-59
2023/09/23 07:15:39;;;;;;;3.30;2.20;;;;;;;30.39;52.25;100855.30;108154;1288;21997;-59
2023/09/23 07:18:05;;;;;;;5.60;2.10;;;;;;;30.42;51.47;100860.97;108122;1276;21987;-60
2023/09/23 07:20:31;;;;;;;5.40;2.30;;;;;;;30.51;51.01;100865.44;108141;1280;21992;-68
2023/09/23 07:22:57;;;;;;;4.40;2.40;;;;;;;30.55;50.57;100869.91;108134;1280;21997;-68
2023/09/23 07:25:24;;;;;;;6.20;2.60;;;;;;;30.60;50.84;100868.30;108122;1287;21993;-59
2023/09/23 07:27:49;;;;;;;4.50;2.20;;;;;;;30.70;50.90;100870.14;108155;1288;21990;-59
2023/09/23 07:30:15;;;;;;;4.60;2.30;;;;;;;30.85;51.28;100870.38;108120;1280;21992;-60
2023/09/23 07:32:41;;;;;;;8.30;2.90;;;;;;;31.08;50.76;100866.90;108105;1288;21962;-68
2023/09/23 07:35:07;;;;;;;4.80;2.80;;;;;;;31.23;49.10;100868.95;108115;1288;21993;-59
2023/09/23 07:37:33;;;;;;;6.50;2.10;;;;;;;31.32;48.89;100870.86;108231;1277;21990;-60
2023/09/23 07:39:59;;;;;;;5.60;2.30;;;;;;;31.42;49.19;100871.23;108168;1280;21995;-60
2023/09/23 07:42:25;;;;;;;4.10;2.50;;;;;;;31.56;49.33;100872.81;108131;1286;21989;-70
2023/09/23 07:44:51;;;;;;;5.10;2.60;;;;;;;31.70;48.20;100874.10;107795;1288;23723;-68
2023/09/23 07:47:16;;;;;;;4.10;2.50;;;;;;;31.83;48.52;100870.48;108121;1287;21994;-67
2023/09/23 07:49:42;;;;;;;10.60;2.60;;;;;;;32.02;48.79;100865.10;107911;1288;21992;-68
2023/09/23 07:52:07;;;;;;;3.90;2.40;;;;;;;32.18;47.68;100864.67;108107;1280;21990;-69
2023/09/23 07:54:33;;;;;;;4.70;2.00;;;;;;;32.18;46.61;100864.63;108120;1280;22011;-60
2023/09/23 07:56:59;;;;;;;4.60;2.00;;;;;;;32.16;45.25;100865.95;108120;1288;23668;-59
2023/09/23 07:59:25;;;;;;;5.20;1.80;;;;;;;32.14;45.12;100866.87;108115;1288;24055;-61
2023/09/23 08:01:50;;;;;;;5.50;2.30;;;;;;;32.14;45.25;100866.30;108109;1278;21999;-68
2023/09/23 08:04:16;;;;;;;4.50;2.00;;;;;;;32.20;45.42;100869.24;108112;1286;21987;-70
2023/09/23 08:06:41;;;;;;;4.70;2.10;;;;;;;32.23;44.94;100873.46;108111;1286;21995;-59
2023/09/23 08:09:09;;;;;;;3.30;2.00;;;;;;;32.27;45.03;100876.34;108140;1288;21991;-60
2023/09/23 08:11:34;;;;;;;5.40;1.80;;;;;;;32.30;44.56;100877.64;108129;1287;21991;-60
2023/09/23 08:14:01;;;;;;;4.50;2.10;;;;;;;32.33;44.35;100878.23;108154;1288;21989;-60
2023/09/23 08:16:26;;;;;;;4.10;2.10;;;;;;;32.40;44.25;100876.89;108200;1283;21990;-66
2023/09/23 08:18:52;;;;;;;5.50;2.20;;;;;;;32.55;44.46;100876.77;108111;1280;22047;-68
2023/09/23 08:21:18;;;;;;;4.90;2.00;;;;;;;32.72;44.05;100875.27;107937;1288;21997;-68
2023/09/23 08:23:43;;;;;;;3.70;1.90;;;;;;;32.81;43.52;100871.77;108166;1288;21993;-59
2023/09/23 08:26:10;;;;;;;5.30;2.00;;;;;;;32.96;43.79;100874.74;109042;1280;21987;-59
2023/09/23 08:28:36;;;;;;;5.60;2.30;;;;;;;33.12;43.70;100868.75;108081;1287;22001;-59
2023/09/23 08:31:02;;;;;;;4.80;1.80;;;;;;;33.14;42.72;100867.27;108118;1283;22012;-68
2023/09/23 08:33:28;;;;;;;3.50;1.90;;;;;;;33.18;42.63;100866.38;107851;1288;21987;-60
2023/09/23 08:35:53;;;;;;;5.60;1.90;;;;;;;33.22;42.67;100871.57;108081;1280;23719;-59
2023/09/23 08:38:20;;;;;;;12.30;2.50;;;;;;;33.28;42.84;100869.75;108221;1288;21989;-70
2023/09/23 08:40:46;;;;;;;4.10;1.90;;;;;;;33.40;43.20;100866.88;108107;1288;22017;-66
2023/09/23 08:43:12;;;;;;;3.30;1.90;;;;;;;33.54;42.84;100861.48;108165;1283;23718;-58
2023/09/23 08:45:46;;;;;;;8.70;2.00;;;;;;;33.65;42.67;100864.88;108142;1283;21992;-66
2023/09/23 08:48:14;;;;;;;3.70;1.70;;;;;;;33.74;42.03;100867.44;107895;1287;21992;-66
2023/09/23 08:50:42;;;;;;;3.60;1.80;;;;;;;33.81;41.78;100873.11;108122;1287;21959;-58
2023/09/23 08:53:07;;;;;;;3.40;1.80;;;;;;;33.81;41.44;100869.22;108185;1288;21954;-66
2023/09/23 08:55:33;;;;;;;4.60;1.80;;;;;;;33.85;41.47;100869.35;107734;1288;21983;-59
2023/09/23 08:58:02;;;;;;;4.00;1.40;;;;;;;33.97;41.23;100868.39;107752;1282;21992;-68
2023/09/23 09:00:30;;;;;;;3.40;2.20;;;;;;;34.03;41.28;100866.48;108131;1288;22744;-59
2023/09/23 09:02:57;;;;;;;5.10;2.00;;;;;;;34.03;40.56;100862.86;108144;1288;21993;-59
2023/09/23 09:05:23;;;;;;;4.20;2.00;;;;;;;34.06;40.46;100856.81;108109;1283;22456;-58
2023/09/23 09:07:49;;;;;;;4.80;1.60;;;;;;;34.24;40.66;100858.48;108105;1288;21999;-68
2023/09/23 09:10:15;;;;;;;7.70;1.80;;;;;;;34.47;40.88;100857.30;108157;1284;21987;-66
2023/09/23 09:12:40;;;;;;;4.00;1.50;;;;;;;34.76;40.41;100859.30;108094;1280;21991;-58
2023/09/23 09:15:07;;;;;;;7.10;2.40;;;;;;;34.94;39.99;100859.45;108082;1288;21984;-58
2023/09/23 09:17:35;;;;;;;12.60;3.60;;;;;;;35.02;39.35;100862.97;108119;1286;23811;-67
2023/09/23 09:20:11;;;;;;;12.20;4.00;;;;;;;35.00;39.54;100860.36;108119;1280;21987;-67
2023/09/23 09:22:38;;;;;;;15.60;4.40;;;;;;;35.09;38.31;100861.69;108097;1285;22026;-67
2023/09/23 09:25:04;;;;;;;9.10;3.20;;;;;;;35.22;39.10;100860.60;108103;1288;23120;-67
2023/09/23 09:27:30;;;;;;;14.60;4.50;;;;;;;35.33;37.61;100859.55;108057;1278;21998;-58
2023/09/23 09:29:56;;;;;;;13.30;3.20;;;;;;;35.23;37.97;100861.05;108049;1287;22363;-58
2023/09/23 09:32:29;;;;;;;7.50;2.40;;;;;;;35.32;38.35;100863.72;108074;1281;22031;-67
2023/09/23 09:34:54;;;;;;;9.50;2.80;;;;;;;35.53;37.92;100862.86;108093;1288;22209;-58
2023/09/23 09:37:20;;;;;;;7.00;1.70;;;;;;;35.61;37.94;100862.14;107819;1288;21996;-67
2023/09/23 09:39:58;;;;;;;4.20;1.50;;;;;;;35.61;38.07;100862.75;107757;1280;22457;-68
2023/09/23 09:42:33;;;;;;;4.30;1.40;;;;;;;35.58;37.96;100854.85;108000;1288;22074;-69
2023/09/23 09:44:58;;;;;;;4.90;2.00;;;;;;;35.64;37.72;100859.09;107853;1288;22000;-63
2023/09/23 09:47:24;;;;;;;4.70;1.60;;;;;;;35.71;37.40;100856.97;107818;1287;22001;-66
2023/09/23 09:49:51;;;;;;;2.70;1.50;;;;;;;35.72;37.38;100859.98;107827;1284;21995;-66
2023/09/23 09:52:20;;;;;;;3.40;1.50;;;;;;;35.63;37.40;100854.95;108096;1284;22046;-59
2023/09/23 09:54:46;;;;;;;5.10;1.80;;;;;;;35.55;37.25;100848.02;108086;1288;22003;-59
2023/09/23 09:57:12;;;;;;;3.10;1.50;;;;;;;35.51;37.11;100846.13;107770;1288;22027;-59
2023/09/23 09:59:39;;;;;;;3.30;1.60;;;;;;;35.53;36.87;100845.52;108071;1279;21990;-59
2023/09/23 10:02:05;;;;;;;2.80;1.50;;;;;;;35.49;36.71;100849.59;107903;1283;24402;-60
2023/09/23 10:04:34;;;;;;;4.90;1.90;;;;;;;35.41;36.63;100849.39;107692;1288;21992;-60
2023/09/23 10:07:00;;;;;;;3.60;1.30;;;;;;;35.38;36.38;100853.90;108133;1287;21996;-67
2023/09/23 10:09:29;;;;;;;2.20;1.40;;;;;;;35.37;36.92;100852.50;108140;1283;22027;-60
2023/09/23 10:11:56;;;;;;;3.30;1.50;;;;;;;35.50;36.98;100849.09;108131;1287;21980;-67
2023/09/23 10:14:25;;;;;;;2.40;1.40;;;;;;;35.61;36.92;100847.19;108151;1283;22002;-59
2023/09/23 10:16:52;;;;;;;2.60;1.20;;;;;;;35.76;37.06;100847.16;108150;1285;21994;-60
2023/09/23 10:19:33;;;;;;;2.90;1.70;;;;;;;35.89;36.39;100856.45;108142;1288;22045;-68
2023/09/23 10:22:16;;;;;;;3.80;1.80;;;;;;;35.83;36.17;100852.02;108156;1283;22000;-59
2023/09/23 10:24:43;;;;;;;4.50;1.20;;;;;;;35.85;36.01;100851.29;108161;1280;22027;-60
2023/09/23 10:27:10;;;;;;;3.90;1.40;;;;;;;35.74;35.22;100856.54;108109;1288;21992;-67
2023/09/23 10:29:47;;;;;;;3.20;1.50;;;;;;;35.55;35.71;100850.20;108137;1280;22030;-67
2023/09/23 10:32:14;;;;;;;5.70;1.80;;;;;;;35.58;35.87;100845.14;108077;1288;22008;-60
2023/09/23 10:34:55;;;;;;;2.60;1.50;;;;;;;35.71;35.94;100844.41;108082;1288;21998;-60
2023/09/23 10:37:30;;;;;;;3.00;1.60;;;;;;;35.82;35.87;100846.16;107915;1288;23701;-67
2023/09/23 10:40:00;;;;;;;3.80;1.50;;;;;;;35.91;35.69;100848.96;108018;1288;21993;-59
2023/09/23 10:42:26;;;;;;;;;;;;;;;35.91;35.47;100846.73;108080;1288;21981;-59
2023/09/23 10:44:58;;;;;;;4.30;1.60;;;;;;;35.92;35.38;100848.52;108107;1288;21994;-59
2023/09/23 10:47:23;;;;;;;5.10;1.70;;;;;;;35.99;35.70;100840.77;108105;1286;21998;-67
2023/09/23 10:49:49;;;;;;;3.80;1.30;;;;;;;36.10;35.77;100837.15;108099;1287;21993;-68
2023/09/23 10:52:15;;;;;;;3.60;1.60;;;;;;;36.19;35.38;100833.73;108100;1288;23195;-59
2023/09/23 10:54:41;;;;;;;3.80;1.50;;;;;;;36.23;35.28;100830.73;107766;1287;21992;-68
2023/09/23 10:57:07;;;;;;;4.60;1.90;;;;;;;36.22;34.82;100828.68;108089;1288;23914;-67
2023/09/23 10:59:33;;;;;;;4.40;1.30;;;;;;;36.22;35.14;100828.81;108074;1283;21996;-60
2023/09/23 11:01:59;;;;;;;6.70;1.60;;;;;;;36.33;34.86;100831.07;107823;1288;22030;-69
2023/09/23 11:04:24;;;;;;;4.80;1.70;;;;;;;36.43;34.64;100826.98;107928;1288;21998;-67
2023/09/23 11:06:50;;;;;;;1.90;1.30;;;;;;;36.54;34.50;100824.48;108084;1288;22029;-60
2023/09/23 11:09:20;;;;;;;6.90;1.70;;;;;;;36.55;34.49;100824.17;108105;1284;22453;-67
2023/09/23 11:11:46;;;;;;;;;;;;;;;36.53;34.57;100820.21;108165;1288;21976;-68
2023/09/23 11:14:15;;;;;;;3.10;1.30;;;;;;;36.52;34.19;100820.08;108088;1288;21989;-67